Main page
METAR-TAF:

METAR-TAF

Airports :

Helsinki Airport

Helsinki, Finland

latitude: 60-19N, longitude: 024-58E, elevation: 51 m

Current weather observation

The report was made 22 minutes ago, at 04:20 UTC
Wind 4 kt from the Northeast
Temperature 16°C
Humidity 88%
Pressure 1019 hPa
Visibility 10 km or more
no clouds below 1500 m and no cumulonimbus

METAR: EFHK 150420Z 04004KT CAVOK 16/14 Q1019 NOSIG

Time: 07:42 (04:42 UTC)

Forecast

The report was made 2 hours and 13 minutes ago, at 02:29 UTC
Forecast valid from 15 at 03 UTC to 16 at 03 UTC
Wind 5 kt from the East/Northeast
Visibility 10 km or more
no clouds below 1500 m and no cumulonimbus

TAF: EFHK 150229Z 1503/1603 06005KT CAVOK

Weather observations and forecasts of more than 4000 airports (METAR and TAF reports).

The available stations are represented by yellow and red dots on the map.

Hover mouse over dot to see the name of the station.

Then click to see weather observations and forecasts.

To change the map : click on the green buttons with a black cross to zoom in, on the green button with a dash to zoom out, or on the green arrows for adjacent maps.


METAR-TAF: